Weather observations for the past three days for
Blakely, Early County Airport
| Date | Time (edt) | Wind (mph) | Vis. (mi.) | Weather | Sky Cond. | Temperature (ºF) | Relative Humidity | Wind Chill (°F) | Heat Index (°F) | Pressure | Precipitation (in) | ||||||
|---|---|---|---|---|---|---|---|---|---|---|---|---|---|---|---|---|---|
| Air | Dwpt | 6 hour | altimeter (in) | sea level (mb) | 1 hr | 3 hr | 6 hr | ||||||||||
| Max. | Min. | ||||||||||||||||
| 04 | 20:35 | Calm | 10.00 | Fair | CLR | 64.4 | 50 | 60% | 29.97 | 0.0 | |||||||
| 04 | 20:15 | Calm | 10.00 | Fair | CLR | 66.2 | 50 | 56% | 29.97 | 0.0 | |||||||
| 04 | 19:55 | Calm | 10.00 | Fair | CLR | 71.6 | 48.2 | 44% | 29.97 | 0.0 | |||||||
| 04 | 19:35 | Calm | 10.00 | Fair | CLR | 73.4 | 48.2 | 41% | 29.97 | 0.0 | |||||||
| 04 | 19:15 | S 3 | 10.00 | Fair | CLR | 77 | 37.4 | 24% | 77 | 29.97 | 0.0 | ||||||
| 04 | 18:55 | SE 3 | 10.00 | Fair | CLR | 77 | 37.4 | 24% | 77 | 29.97 | 0.0 | ||||||
| 04 | 18:35 | SE 5 | 10.00 | Fair | CLR | 77 | 37.4 | 24% | 77 | 29.97 | 0.0 | ||||||
| 04 | 18:15 | S 5 | 10.00 | Fair | CLR | 78.8 | 35.6 | 21% | 78 | 29.98 | 0.0 | ||||||
| 04 | 17:55 | S 6 | 10.00 | Fair | CLR | 78.8 | 37.4 | 23% | 78 | 29.98 | 0.0 | ||||||
| 04 | 17:35 | S 5 | 10.00 | Fair | CLR | 78.8 | 37.4 | 23% | 78 | 29.98 | 0.0 | ||||||
| 04 | 17:15 | SW 3 | 10.00 | Fair | CLR | 78.8 | 37.4 | 23% | 78 | 29.98 | 0.0 | ||||||
| 04 | 16:55 | Calm | 10.00 | Fair | CLR | 78.8 | 37.4 | 23% | 78 | 29.98 | 0.0 | ||||||
| 04 | 16:35 | SE 3 | 10.00 | Fair | CLR | 78.8 | 39.2 | 24% | 78 | 29.99 | 0.0 | ||||||
| 04 | 16:15 | Calm | 10.00 | Fair | CLR | 77 | 37.4 | 24% | 77 | 29.99 | 0.0 | ||||||
| 04 | 15:55 | Calm | 10.00 | Fair | CLR | 77 | 35.6 | 22% | 77 | 30 | 0.0 | ||||||
| 04 | 15:35 | Calm | 10.00 | Fair | CLR | 77 | 37.4 | 24% | 77 | 30.01 | 0.0 | ||||||
| 04 | 15:15 | SW 5 | 10.00 | Fair | CLR | 77 | 37.4 | 24% | 77 | 30.02 | 0.0 | ||||||
| 04 | 14:55 | Calm | 10.00 | Fair | CLR | 77 | 39.2 | 26% | 77 | 30.03 | 0.0 | ||||||
| 04 | 14:35 | Calm | 10.00 | Fair | CLR | 77 | 39.2 | 26% | 77 | 30.03 | 0.0 | ||||||
| 04 | 14:15 | E 5 | 10.00 | Fair | CLR | 75.2 | 39.2 | 27% | 77 | 30.04 | 0.0 | ||||||
| 04 | 13:55 | E 6 | 10.00 | Fair | CLR | 75.2 | 39.2 | 27% | 77 | 30.05 | 0.0 | ||||||
| 04 | 13:35 | SE 6 | 10.00 | Fair | CLR | 75.2 | 41 | 29% | 77 | 30.05 | 0.0 | ||||||
| 04 | 13:15 | Calm | 10.00 | Fair | CLR | 73.4 | 39.2 | 29% | 30.05 | 0.0 | |||||||
| 04 | 12:55 | Calm | 10.00 | Fair | CLR | 73.4 | 39.2 | 29% | 30.07 | 0.0 | |||||||
| 04 | 12:35 | Calm | 10.00 | Fair | CLR | 73.4 | 41 | 31% | 30.07 | 0.0 | |||||||
| 04 | 12:15 | Calm | 10.00 | Fair | CLR | 71.6 | 37.4 | 29% | 30.08 | 0.0 | |||||||
| 04 | 11:55 | Calm | 10.00 | Fair | CLR | 71.6 | 37.4 | 29% | 30.08 | 0.0 | |||||||
| 04 | 11:35 | E 5 | 10.00 | Fair | CLR | 71.6 | 39.2 | 31% | 30.09 | 0.0 | |||||||
| 04 | 11:15 | Calm | 10.00 | Fair | CLR | 69.8 | 39.2 | 33% | 30.09 | 0.0 | |||||||
| 04 | 10:55 | Calm | 10.00 | Fair | CLR | 69.8 | 41 | 35% | 30.09 | 0.0 | |||||||
| 04 | 10:35 | E 3 | 10.00 | Fair | CLR | 69.8 | 44.6 | 40% | 30.09 | 0.0 | |||||||
| 04 | 10:15 | Calm | 10.00 | Fair | CLR | 68 | 46.4 | 46% | 30.09 | 0.0 | |||||||
| 04 | 09:55 | Calm | 10.00 | Fair | CLR | 64.4 | 48.2 | 56% | 30.09 | 0.0 | |||||||
| 04 | 09:35 | Calm | 10.00 | Fair | CLR | 62.6 | 48.2 | 60% | 30.09 | 0.0 | |||||||
| 04 | 09:15 | Calm | 10.00 | Fair | CLR | 60.8 | 50 | 68% | 30.09 | 0.0 | |||||||
| 04 | 08:55 | Calm | 10.00 | Fair | CLR | 55.4 | 50 | 82% | 30.09 | 0.0 | |||||||
| 04 | 08:35 | Calm | 10.00 | Fair | CLR | 51.8 | 48.2 | 88% | 30.09 | 0.0 | |||||||
| 04 | 08:15 | Calm | 10.00 | Fair | CLR | 48.2 | 46.4 | 94% | 30.09 | 0.0 | |||||||
| 04 | 07:55 | Calm | 10.00 | Fair | CLR | 44.6 | 42.8 | 93% | 30.09 | 0.0 | |||||||
| 04 | 07:35 | Calm | 10.00 | Fair | CLR | 42.8 | 42.8 | 100% | 30.08 | 0.0 | |||||||
| 04 | 07:15 | Calm | 10.00 | Fair | CLR | 42.8 | 41 | 93% | 30.08 | 0.0 | |||||||
| 04 | 06:55 | Calm | 10.00 | Fair | CLR | 42.8 | 41 | 93% | 30.08 | 0.0 | |||||||
| 04 | 06:35 | Calm | 10.00 | Fair | CLR | 42.8 | 41 | 93% | 30.07 | 0.0 | |||||||
| 04 | 06:15 | Calm | 10.00 | Fair | CLR | 42.8 | 41 | 93% | 30.07 | 0.0 | |||||||
| 04 | 05:55 | Calm | 10.00 | Fair | CLR | 44.6 | 42.8 | 93% | 30.07 | 0.0 | |||||||
| 04 | 05:35 | Calm | 10.00 | Fair | CLR | 42.8 | 42.8 | 100% | 30.07 | 0.0 | |||||||
| 04 | 05:15 | Calm | 10.00 | Fair | CLR | 42.8 | 41 | 93% | 30.08 | 0.0 | |||||||
| 04 | 04:55 | Calm | 10.00 | Fair | CLR | 44.6 | 42.8 | 93% | 30.08 | 0.0 | |||||||
| 04 | 04:35 | Calm | 10.00 | Fair | CLR | 44.6 | 42.8 | 93% | 30.08 | 0.0 | |||||||
| 04 | 04:15 | Calm | 10.00 | Fair | CLR | 44.6 | 42.8 | 93% | 30.08 | 0.0 | |||||||
| 04 | 03:55 | Calm | 10.00 | Fair | CLR | 44.6 | 42.8 | 93% | 30.08 | 0.0 | |||||||
| 04 | 03:35 | Calm | 10.00 | Fair | CLR | 44.6 | 42.8 | 93% | 30.08 | 0.0 | |||||||
| 04 | 03:15 | Calm | 10.00 | Fair | CLR | 44.6 | 42.8 | 93% | 30.08 | 0.0 | |||||||
| 04 | 02:55 | Calm | 10.00 | Fair | CLR | 44.6 | 42.8 | 93% | 30.08 | 0.0 | |||||||
| 04 | 02:15 | Calm | 10.00 | Fair | CLR | 46.4 | 44.6 | 93% | 30.1 | 0.0 | |||||||
| 04 | 01:55 | Calm | 10.00 | Fair | CLR | 46.4 | 44.6 | 93% | 30.1 | 0.0 | |||||||
| 04 | 01:35 | Calm | 10.00 | Fair | CLR | 46.4 | 44.6 | 93% | 30.11 | 0.0 | |||||||
| 04 | 01:15 | Calm | 10.00 | Fair | CLR | 46.4 | 44.6 | 93% | 30.1 | 0.0 | |||||||
| 04 | 00:55 | Calm | 10.00 | Fair | CLR | 48.2 | 44.6 | 87% | 30.1 | 0.0 | |||||||
| 04 | 00:35 | Calm | 10.00 | Fair | CLR | 48.2 | 44.6 | 87% | 30.1 | 0.0 | |||||||
| 04 | 00:15 | Calm | 10.00 | Fair | CLR | 50 | 44.6 | 82% | 30.1 | 0.0 | |||||||
| 03 | 23:55 | Calm | 10.00 | Fair | CLR | 50 | 46.4 | 88% | 30.1 | 0.0 | |||||||
| 03 | 23:35 | Calm | 10.00 | Fair | CLR | 50 | 46.4 | 88% | 30.1 | 0.0 | |||||||
| 03 | 23:15 | Calm | 10.00 | Fair | CLR | 51.8 | 46.4 | 82% | 30.1 | 0.0 | |||||||
| 03 | 22:55 | Calm | 10.00 | Fair | CLR | 51.8 | 48.2 | 88% | 30.1 | 0.0 | |||||||
| 03 | 22:35 | Calm | 10.00 | Fair | CLR | 53.6 | 48.2 | 82% | 30.1 | 0.0 | |||||||
| 03 | 22:15 | Calm | 10.00 | Fair | CLR | 53.6 | 48.2 | 82% | 30.09 | 0.0 | |||||||
| 03 | 21:55 | Calm | 10.00 | Fair | CLR | 53.6 | 48.2 | 82% | 30.08 | 0.0 | |||||||
| 03 | 21:35 | Calm | 10.00 | Fair | CLR | 55.4 | 48.2 | 77% | 30.08 | 0.0 | |||||||
| 03 | 21:15 | Calm | 10.00 | Fair | CLR | 57.2 | 50 | 77% | 30.07 | 0.0 | |||||||
| 03 | 20:55 | Calm | 10.00 | Fair | CLR | 59 | 48.2 | 68% | 30.06 | 0.0 | |||||||
| 03 | 20:35 | Calm | 10.00 | Fair | CLR | 60.8 | 46.4 | 59% | 30.05 | 0.0 | |||||||
| 03 | 20:15 | Calm | 10.00 | Fair | CLR | 64.4 | 48.2 | 56% | 30.05 | 0.0 | |||||||
| 03 | 19:55 | Calm | 10.00 | Fair | CLR | 69.8 | 37.4 | 31% | 30.05 | 0.0 | |||||||
| 03 | 19:35 | Calm | 10.00 | Fair | CLR | 71.6 | 35.6 | 27% | 30.05 | 0.0 | |||||||
| 03 | 19:15 | NW 3 | 10.00 | Fair | CLR | 71.6 | 35.6 | 27% | 30.05 | 0.0 | |||||||
| 03 | 18:55 | N 3 | 10.00 | Fair | CLR | 71.6 | 35.6 | 27% | 30.05 | 0.0 | |||||||
| 03 | 18:35 | NW 5 | 10.00 | Fair | CLR | 73.4 | 35.6 | 25% | 30.04 | 0.0 | |||||||
| 03 | 18:15 | N 6 | 10.00 | Fair | CLR | 73.4 | 35.6 | 25% | 30.05 | 0.0 | |||||||
| 03 | 17:55 | N 5 | 10.00 | Fair | CLR | 73.4 | 37.4 | 27% | 30.05 | 0.0 | |||||||
| 03 | 17:35 | N 5 | 10.00 | Fair | CLR | 73.4 | 37.4 | 27% | 30.05 | 0.0 | |||||||
| 03 | 17:15 | N 6 | 10.00 | Fair | CLR | 73.4 | 37.4 | 27% | 30.05 | 0.0 | |||||||
| 03 | 16:55 | E 3 | 10.00 | Fair | CLR | 73.4 | 37.4 | 27% | 30.06 | 0.0 | |||||||
| 03 | 16:35 | NW 3 | 10.00 | Fair | CLR | 73.4 | 37.4 | 27% | 30.07 | 0.0 | |||||||
| 03 | 16:15 | NW 8 | 10.00 | Fair | CLR | 73.4 | 37.4 | 27% | 30.08 | 0.0 | |||||||
| 03 | 15:55 | N 7 | 10.00 | Fair | CLR | 73.4 | 37.4 | 27% | 30.09 | 0.0 | |||||||
| 03 | 15:35 | N 7 | 10.00 | Fair | CLR | 73.4 | 37.4 | 27% | 30.1 | 0.0 | |||||||
| 03 | 15:15 | N 7 | 10.00 | Fair | CLR | 71.6 | 37.4 | 29% | 30.1 | 0.0 | |||||||
| 03 | 14:55 | Calm | 10.00 | Fair | CLR | 71.6 | 35.6 | 27% | 30.11 | 0.0 | |||||||
| 03 | 14:35 | NW 6 | 10.00 | Fair | CLR | 71.6 | 33.8 | 25% | 30.11 | 0.0 | |||||||
| 03 | 14:15 | Calm | 10.00 | Fair | CLR | 71.6 | 35.6 | 27% | 30.12 | 0.0 | |||||||
| 03 | 13:55 | NW 6 | 10.00 | Fair | CLR | 71.6 | 35.6 | 27% | 30.13 | 0.0 | |||||||
| 03 | 13:35 | NW 3 | 10.00 | Fair | CLR | 69.8 | 35.6 | 29% | 30.14 | 0.0 | |||||||
| 03 | 13:15 | NW 7 | 10.00 | Fair | CLR | 69.8 | 35.6 | 29% | 30.15 | 0.0 | |||||||
| 03 | 12:55 | NW 7 | 10.00 | Fair | CLR | 69.8 | 37.4 | 31% | 30.16 | 0.0 | |||||||
| 03 | 12:35 | NW 9 | 10.00 | Fair | CLR | 69.8 | 37.4 | 31% | 30.17 | 0.0 | |||||||
| 03 | 12:15 | NW 5 | 10.00 | Fair | CLR | 69.8 | 35.6 | 29% | 30.16 | 0.0 | |||||||
| 03 | 11:55 | N 6 | 10.00 | Fair | CLR | 69.8 | 37.4 | 31% | 30.17 | 0.0 | |||||||
| 03 | 11:35 | E 6 | 10.00 | Fair | CLR | 68 | 35.6 | 30% | 30.17 | 0.0 | |||||||
| 03 | 11:15 | NE 7 | 10.00 | Fair | CLR | 68 | 37.4 | 33% | 30.17 | 0.0 | |||||||
| 03 | 10:55 | N 5 | 10.00 | Fair | CLR | 66.2 | 42.8 | 43% | 30.17 | 0.0 | |||||||
| 03 | 10:35 | N 3 | 10.00 | Fair | CLR | 64.4 | 44.6 | 49% | 30.16 | 0.0 | |||||||
| 03 | 10:15 | NE 5 | 10.00 | Fair | CLR | 62.6 | 44.6 | 52% | 30.15 | 0.0 | |||||||
| 03 | 09:55 | NE 3 | 10.00 | Fair | CLR | 62.6 | 44.6 | 52% | 30.16 | 0.0 | |||||||
| 03 | 09:35 | N 3 | 10.00 | Fair | CLR | 60.8 | 44.6 | 55% | 30.16 | 0.0 | |||||||
| 03 | 09:15 | Calm | 10.00 | Fair | CLR | 59 | 44.6 | 59% | 30.15 | 0.0 | |||||||
| 03 | 08:55 | N 3 | 10.00 | Fair | CLR | 57.2 | 44.6 | 63% | 30.15 | 0.0 | |||||||
| 03 | 08:35 | Calm | 10.00 | Fair | CLR | 51.8 | 46.4 | 82% | 30.15 | 0.0 | |||||||
| 03 | 08:15 | Calm | 10.00 | Fair | CLR | 48.2 | 46.4 | 94% | 30.15 | 0.0 | |||||||
| 03 | 07:55 | Calm | 10.00 | Fair | CLR | 44.6 | 42.8 | 93% | 30.14 | 0.0 | |||||||
| 03 | 07:35 | Calm | 10.00 | Fair | CLR | 42.8 | 41 | 93% | 30.13 | 0.0 | |||||||
| 03 | 07:15 | Calm | 10.00 | Fair | CLR | 41 | 39.2 | 93% | 30.12 | 0.0 | |||||||
| 03 | 06:55 | Calm | 10.00 | Fair | CLR | 42.8 | 41 | 93% | 30.12 | 0.0 | |||||||
| 03 | 06:35 | Calm | 10.00 | Fair | CLR | 41 | 41 | 100% | 30.11 | 0.0 | |||||||
| 03 | 06:15 | Calm | 10.00 | Fair | CLR | 42.8 | 41 | 93% | 30.1 | 0.0 | |||||||
| 03 | 05:55 | Calm | 10.00 | Fair | CLR | 42.8 | 41 | 93% | 30.1 | 0.0 | |||||||
| 03 | 05:35 | Calm | 10.00 | Fair | CLR | 42.8 | 41 | 93% | 30.1 | 0.0 | |||||||
| 03 | 05:15 | Calm | 10.00 | Fair | CLR | 42.8 | 41 | 93% | 30.1 | 0.0 | |||||||
| 03 | 04:55 | Calm | 10.00 | Fair | CLR | 42.8 | 41 | 93% | 30.09 | 0.0 | |||||||
| 03 | 04:35 | Calm | 10.00 | Fair | CLR | 42.8 | 42.8 | 100% | 30.09 | 0.0 | |||||||
| 03 | 04:15 | Calm | 10.00 | Fair | CLR | 44.6 | 42.8 | 93% | 30.09 | 0.0 | |||||||
| 03 | 03:55 | Calm | 10.00 | Fair | CLR | 44.6 | 42.8 | 93% | 30.08 | 0.0 | |||||||
| 03 | 03:35 | Calm | 10.00 | Fair | CLR | 44.6 | 42.8 | 93% | 30.08 | 0.0 | |||||||
| 03 | 03:15 | Calm | 10.00 | Fair | CLR | 44.6 | 42.8 | 93% | 30.07 | 0.0 | |||||||
| 03 | 02:55 | Calm | 10.00 | Fair | CLR | 44.6 | 42.8 | 93% | 30.07 | 0.0 | |||||||
| 03 | 02:35 | Calm | 10.00 | Fair | CLR | 44.6 | 44.6 | 100% | 30.07 | 0.0 | |||||||
| 03 | 02:15 | Calm | 10.00 | Fair | CLR | 44.6 | 44.6 | 100% | 30.07 | 0.0 | |||||||
| 03 | 01:55 | Calm | 10.00 | Fair | CLR | 46.4 | 44.6 | 93% | 30.07 | 0.0 | |||||||
| 03 | 01:35 | Calm | 10.00 | Fair | CLR | 46.4 | 44.6 | 93% | 30.07 | 0.0 | |||||||
| 03 | 01:15 | Calm | 10.00 | Fair | CLR | 48.2 | 44.6 | 87% | 30.06 | 0.0 | |||||||
| 03 | 00:55 | Calm | 10.00 | Fair | CLR | 48.2 | 44.6 | 87% | 30.06 | 0.0 | |||||||
| 03 | 00:35 | Calm | 10.00 | Fair | CLR | 50 | 46.4 | 88% | 30.05 | 0.0 | |||||||
| 03 | 00:15 | Calm | 10.00 | Fair | CLR | 50 | 46.4 | 88% | 30.05 | 0.0 | |||||||
| 02 | 23:55 | Calm | 10.00 | Fair | CLR | 51.8 | 46.4 | 82% | 30.05 | 0.0 | |||||||
| 02 | 23:35 | Calm | 10.00 | Fair | CLR | 51.8 | 46.4 | 82% | 30.04 | 0.0 | |||||||
| 02 | 23:15 | Calm | 10.00 | Fair | CLR | 51.8 | 46.4 | 82% | 30.04 | 0.0 | |||||||
| 02 | 22:55 | Calm | 10.00 | Fair | CLR | 55.4 | 46.4 | 72% | 30.03 | 0.0 | |||||||
| 02 | 22:35 | Calm | 10.00 | Fair | CLR | 59 | 42.8 | 55% | 30.02 | 0.0 | |||||||
| 02 | 22:15 | Calm | 10.00 | Fair | CLR | 59 | 42.8 | 55% | 30.02 | 0.0 | |||||||
| 02 | 21:55 | Calm | 10.00 | Fair | CLR | 60.8 | 42.8 | 52% | 30 | 0.0 | |||||||
| 02 | 21:35 | Calm | 10.00 | Fair | CLR | 60.8 | 42.8 | 52% | 29.99 | 0.0 | |||||||
| 02 | 21:15 | Calm | 10.00 | Fair | CLR | 62.6 | 42.8 | 49% | 29.98 | 0.0 | |||||||
| 02 | 20:55 | NW 3 | 10.00 | Fair | CLR | 62.6 | 44.6 | 52% | 29.97 | 0.0 | |||||||
| 02 | 20:35 | NW 5 | 10.00 | Fair | CLR | 64.4 | 46.4 | 52% | 29.95 | 0.0 | |||||||
| 02 | 20:15 | NW 3 | 10.00 | Fair | CLR | 66.2 | 48.2 | 52% | 29.94 | 0.0 | |||||||
| 02 | 19:55 | NW 5 | 10.00 | Fair | CLR | 68 | 48.2 | 49% | 29.93 | 0.0 | |||||||
| 02 | 19:35 | NW 6 | 10.00 | Fair | CLR | 69.8 | 48.2 | 46% | 29.92 | 0.0 | |||||||
| 02 | 19:15 | NW 3 | 10.00 | Fair | CLR | 69.8 | 50 | 50% | 29.91 | 0.0 | |||||||
| 02 | 18:55 | N 6 | 10.00 | Fair | CLR | 69.8 | 48.2 | 46% | 29.91 | 0.0 | |||||||
| 02 | 18:35 | NW 6 | 10.00 | Fair | CLR | 71.6 | 50 | 47% | 29.9 | 0.0 | |||||||
| 02 | 18:15 | NW 8 | 10.00 | Fair | CLR | 71.6 | 50 | 47% | 29.9 | 0.0 | |||||||
| 02 | 17:55 | NW 8 | 10.00 | Partly Cloudy | SCT048 SCT050 SCT060 | 71.6 | 50 | 47% | 29.9 | 0.0 | |||||||
| 02 | 17:35 | NW 6 | 10.00 | Mostly Cloudy | BKN048 BKN060 | 71.6 | 50 | 47% | 29.89 | 0.0 | |||||||
| 02 | 17:15 | N 6 | 10.00 | Partly Cloudy | SCT060 | 69.8 | 50 | 50% | 29.89 | 0.0 | |||||||
| 02 | 16:55 | N 7 | 10.00 | Partly Cloudy | SCT042 SCT050 | 71.6 | 51.8 | 50% | 29.89 | 0.0 | |||||||
| 02 | 16:35 | N 5 | 10.00 | Mostly Cloudy | BKN042 BKN050 | 69.8 | 51.8 | 53% | 29.9 | 0.0 | |||||||
| 02 | 16:15 | N 12 | 10.00 | Mostly Cloudy | BKN042 BKN047 | 69.8 | 51.8 | 53% | 29.91 | 0.0 | |||||||
| 02 | 15:55 | NW 8 | 10.00 | Overcast | BKN039 OVC045 | 69.8 | 51.8 | 53% | 29.91 | 0.0 | |||||||
| 02 | 15:35 | N 8 | 10.00 | Mostly Cloudy | BKN039 | 68 | 51.8 | 56% | 29.91 | 0.0 | |||||||
| 02 | 15:15 | N 8 | 10.00 | Partly Cloudy | SCT036 SCT042 | 68 | 53.6 | 60% | 29.92 | 0.0 | |||||||
| 02 | 14:55 | N 8 G 16 | 10.00 | Partly Cloudy | SCT033 SCT065 | 68 | 53.6 | 60% | 29.91 | 0.0 | |||||||
| 02 | 14:35 | NW 7 | 10.00 | Overcast | SCT027 BKN033 OVC070 | 64.4 | 53.6 | 68% | 29.91 | 0.0 | |||||||
| 02 | 14:15 | N 6 | 10.00 | Overcast | SCT025 BKN031 OVC050 | 64.4 | 53.6 | 68% | 29.92 | 0.0 | |||||||
| 02 | 13:55 | N 7 | 10.00 | Overcast | SCT018 SCT025 OVC050 | 64.4 | 53.6 | 68% | 29.92 | 0.0 | |||||||
| 02 | 13:35 | N 3 | 10.00 | Overcast | BKN016 OVC050 | 62.6 | 55.4 | 77% | 29.93 | 0.0 | |||||||
| 02 | 13:15 | NE 5 | 10.00 | Overcast | BKN014 OVC060 | 62.6 | 55.4 | 77% | 29.92 | 0.0 | |||||||
| 02 | 12:55 | NE 6 | 10.00 | Overcast | SCT014 BKN032 OVC060 | 60.8 | 55.4 | 83% | 29.93 | 0.0 | |||||||
| 02 | 12:35 | NE 7 | 10.00 | Light Drizzle | BKN012 OVC045 | 59 | 53.6 | 82% | 29.94 | 0.0 | |||||||
| 02 | 12:15 | N 6 | 5.00 | Fog/Mist | BKN010 BKN015 OVC035 | 57.2 | 53.6 | 88% | 29.93 | 0.0 | |||||||
| 02 | 11:55 | N 5 | 10.00 | Overcast | BKN012 OVC035 | 57.2 | 53.6 | 88% | 29.94 | 0.0 | 0.02 | ||||||
| 02 | 11:35 | N 5 | 10.00 | Rain | BKN010 OVC035 | 55.4 | 53.6 | 94% | 29.94 | 0.0 | 0.02 | ||||||
| 02 | 11:15 | N 7 | 10.00 | Rain | BKN009 BKN014 OVC033 | 55.4 | 53.6 | 94% | 29.93 | 0.0 | 0.01 | ||||||
| 02 | 10:55 | N 6 | 10.00 | Overcast | OVC009 | 55.4 | 53.6 | 94% | 29.93 | 0.0 | |||||||
| 02 | 10:35 | N 6 | 10.00 | Light Rain | BKN009 OVC012 | 55.4 | 51.8 | 88% | 29.91 | 0.0 | |||||||
| 02 | 10:15 | N 3 | 10.00 | Overcast | BKN007 OVC012 | 53.6 | 51.8 | 94% | 29.9 | 0.0 | |||||||
| 02 | 09:55 | Calm | 10.00 | Overcast | BKN007 OVC029 | 53.6 | 51.8 | 94% | 29.9 | 0.0 | 0.04 | ||||||
| 02 | 09:35 | N 5 | 7.00 | Rain | BKN009 OVC029 | 53.6 | 51.8 | 94% | 29.92 | 0.0 | 0.04 | ||||||
| 02 | 09:15 | N 3 | 7.00 | Rain | BKN007 OVC029 | 53.6 | 51.8 | 94% | 29.92 | 0.0 | 0.02 | ||||||
| 02 | 08:55 | NE 3 | 10.00 | Rain | BKN007 BKN029 OVC090 | 51.8 | 51.8 | 100% | 29.89 | 0.0 | 0.05 | ||||||
| 02 | 08:35 | NE 3 | 10.00 | Light Rain | SCT007 BKN011 OVC028 | 51.8 | 50 | 94% | 29.89 | 0.0 | 0.05 | ||||||
| 02 | 08:15 | N 5 | 5.00 | Rain | SCT007 OVC028 | 51.8 | 50 | 94% | 29.91 | 0.0 | 0.03 | ||||||
| 02 | 07:55 | N 7 | 10.00 | Light Rain | OVC028 | 51.8 | 50 | 94% | 29.91 | 0.0 | 0.09 | ||||||
| 02 | 07:35 | N 3 | 5.00 | Rain | SCT010 BKN028 OVC100 | 51.8 | 50 | 94% | 29.91 | 0.0 | 0.07 | ||||||
| 02 | 07:15 | Calm | 10.00 | Rain | BKN008 OVC031 | 51.8 | 50 | 94% | 29.91 | 0.0 | 0.01 | ||||||
| 02 | 06:55 | Calm | 4.00 | Rain | OVC008 | 51.8 | 50 | 94% | 29.91 | 0.0 | 0.17 | ||||||
| 02 | 06:35 | N 6 | 5.00 | Heavy Rain | OVC008 | 51.8 | 50 | 94% | 29.89 | 0.0 | 0.1 | ||||||
| 02 | 06:15 | N 3 | 10.00 | Rain | OVC008 | 51.8 | 50 | 94% | 29.89 | 0.0 | 0.02 | ||||||
| 02 | 05:55 | N 7 | 7.00 | Rain | OVC008 | 51.8 | 50 | 94% | 29.87 | 0.0 | 0.07 | ||||||
| 02 | 05:35 | N 6 | 10.00 | Rain | OVC006 | 51.8 | 51.8 | 100% | 29.87 | 0.0 | 0.03 | ||||||
| 02 | 05:15 | N 5 | 7.00 | Rain | BKN006 OVC012 | 53.6 | 51.8 | 94% | 29.87 | 0.0 | 0.01 | ||||||
| 02 | 04:55 | N 3 | 7.00 | Rain | OVC008 | 53.6 | 51.8 | 94% | 29.87 | 0.0 | 0.18 | ||||||
| 02 | 04:35 | N 6 | 4.00 | Rain | OVC006 | 53.6 | 51.8 | 94% | 29.87 | 0.0 | 0.14 | ||||||
| 02 | 04:15 | Calm | 4.00 | Heavy Rain | OVC006 | 53.6 | 51.8 | 94% | 29.88 | 0.0 | 0.07 | ||||||
| 02 | 03:55 | NE 7 | 7.00 | Rain | BKN006 BKN013 OVC046 | 53.6 | 51.8 | 94% | 29.87 | 0.0 | 0.13 | ||||||
| 02 | 03:35 | NE 5 | 10.00 | Rain | BKN006 BKN029 OVC075 | 53.6 | 51.8 | 94% | 29.88 | 0.0 | 0.07 | ||||||
| 02 | 03:15 | NE 8 | 5.00 | Rain | BKN006 BKN013 OVC060 | 53.6 | 51.8 | 94% | 29.88 | 0.0 | 0.06 | ||||||
| 02 | 02:55 | NE 7 | 7.00 | Rain | BKN006 BKN013 OVC060 | 53.6 | 51.8 | 94% | 29.89 | 0.0 | 0.14 | ||||||
| 02 | 02:35 | N 5 | 7.00 | Rain | OVC004 | 55.4 | 53.6 | 94% | 29.91 | 0.0 | 0.09 | ||||||
| 02 | 02:15 | NE 3 | 5.00 | Rain | BKN006 BKN033 OVC065 | 55.4 | 53.6 | 94% | 29.89 | 0.0 | 0.07 | ||||||
| 02 | 01:55 | Calm | 4.00 | Heavy Rain | SCT006 BKN049 OVC070 | 55.4 | 53.6 | 94% | 29.92 | 0.0 | 0.27 | ||||||
| 02 | 01:35 | Calm | 3.00 | Heavy Rain | SCT006 BKN049 OVC070 | 55.4 | 53.6 | 94% | 29.94 | 0.0 | 0.17 | ||||||
| 02 | 01:15 | NW 3 | 4.00 | Rain | SCT055 BKN065 OVC080 | 55.4 | 53.6 | 94% | 29.94 | 0.0 | 0.07 | ||||||
| 02 | 00:55 | Calm | 4.00 | Rain | SCT055 BKN075 OVC090 | 55.4 | 53.6 | 94% | 29.94 | 0.0 | 0.29 | ||||||
| 02 | 00:35 | NE 5 | 4.00 | Rain | SCT023 BKN055 OVC090 | 55.4 | 53.6 | 94% | 29.93 | 0.0 | 0.19 | ||||||
| 02 | 00:15 | Calm | 3.00 | Heavy Rain | BKN025 BKN045 OVC100 | 55.4 | 53.6 | 94% | 29.94 | 0.0 | 0.07 | ||||||
| 01 | 23:55 | NE 3 | 10.00 | Rain | SCT042 BKN090 OVC100 | 55.4 | 53.6 | 94% | 29.92 | 0.0 | 0.06 | ||||||
| 01 | 23:35 | N 7 | 10.00 | Rain | BKN090 OVC110 | 55.4 | 53.6 | 94% | 29.92 | 0.0 | 0.05 | ||||||
| 01 | 23:15 | N 5 | 7.00 | Light Rain | SCT009 BKN070 OVC100 | 57.2 | 55.4 | 94% | 29.92 | 0.0 | 0.04 | ||||||
| 01 | 22:55 | Calm | 7.00 | Rain | SCT009 BKN070 OVC120 | 57.2 | 55.4 | 94% | 29.95 | 0.0 | 0.06 | ||||||
| 01 | 22:35 | NE 5 | 7.00 | Light Rain | SCT050 BKN075 BKN120 | 57.2 | 55.4 | 94% | 29.91 | 0.0 | 0.04 | ||||||
| 01 | 22:15 | Calm | 7.00 | Light Rain | SCT005 BKN075 OVC090 | 59 | 55.4 | 88% | 29.94 | 0.0 | 0.02 | ||||||
| 01 | 21:55 | Calm | 4.00 | Rain | SCT033 BKN065 OVC090 | 59 | 55.4 | 88% | 29.93 | 0.0 | 0.14 | ||||||
| 01 | 21:35 | Calm | 5.00 | Rain | BKN065 OVC090 | 59 | 55.4 | 88% | 29.94 | 0.0 | 0.05 | ||||||
| 01 | 21:15 | N 5 | 10.00 | Rain | BKN065 OVC075 | 59 | 55.4 | 88% | 29.92 | 0.0 | |||||||
| 01 | 20:55 | Calm | 7.00 | Light Rain | BKN065 OVC075 | 59 | 55.4 | 88% | 29.92 | 0.0 | 0.04 | ||||||
| Date | Time (edt) | Wind (mph) | Vis. (mi.) | Weather | Sky Cond. | Air | Dwpt | Max. | Min. | Relative Humidity | Wind Chill (°F) | Heat Index (°F) | altimeter (in) | sea level (mb) | 1 hr | 3 hr | 6 hr |
| 6 hour | |||||||||||||||||
| Temperature (ºF) | Pressure | Precipitation (in) | |||||||||||||||